METAR Data
IDs: Format: Raw Decoded Include TAF

Data at: 0156 UTC 25 Feb 2021

LZPP 250130Z AUTO 01003KT 4800 BR NCD M00/M01 Q1034